Time;durP1;ratioP1;P1;durP2;ratioP2;P2;SDS_P1;SDS_P2;PMS_P1;PMS_P2;Temp;Humidity;BMP_temperature;BMP_pressure;BME280_temperature;BME280_humidity;BME280_pressure;Samples;Min_cycle;Max_cycle;Signal;HPM_P1;HPM_P2
2022/12/09 00:00:05;;;;;;;11.50;3.40;;;16.70;1.00;;;;;;4825117;29;20067;-37
2022/12/09 00:02:33;;;;;;;4.82;3.40;;;16.80;1.00;;;;;;4830351;29;20102;-37
2022/12/09 00:05:00;;;;;;;4.95;2.88;;;16.80;1.00;;;;;;4835901;29;20491;-37
2022/12/09 00:07:27;;;;;;;4.45;2.70;;;16.90;1.00;;;;;;4843550;29;20046;-37
2022/12/09 00:09:54;;;;;;;3.55;2.50;;;16.90;1.00;;;;;;4843698;29;20509;-37
2022/12/09 00:12:21;;;;;;;5.13;2.95;;;17.00;1.00;;;;;;4843409;29;20050;-37
2022/12/09 00:14:48;;;;;;;8.13;2.92;;;17.00;1.00;;;;;;4843295;29;20053;-37
2022/12/09 00:17:14;;;;;;;5.18;3.05;;;17.00;1.00;;;;;;4843483;29;20125;-37
2022/12/09 00:19:41;;;;;;;5.18;3.13;;;17.10;1.00;;;;;;4843544;29;20391;-37
2022/12/09 00:22:08;;;;;;;4.22;2.20;;;17.10;1.00;;;;;;4843395;29;20038;-37
2022/12/09 00:24:35;;;;;;;4.53;2.30;;;17.10;1.00;;;;;;4843155;29;20049;-37
2022/12/09 00:27:02;;;;;;;3.08;2.22;;;17.10;1.00;;;;;;4843453;29;20053;-37
2022/12/09 00:29:29;;;;;;;4.38;2.45;;;17.10;1.00;;;;;;4826079;29;20528;-37
2022/12/09 00:31:56;;;;;;;3.92;2.58;;;17.00;1.00;;;;;;4843199;29;20091;-38
2022/12/09 00:34:23;;;;;;;5.18;2.38;;;17.00;1.00;;;;;;4826528;29;20526;-37
2022/12/09 00:36:50;;;;;;;5.43;2.10;;;17.00;1.00;;;;;;4826792;29;20050;-37
2022/12/09 00:39:17;;;;;;;4.53;2.15;;;17.00;1.00;;;;;;4826767;29;20456;-35
2022/12/09 00:41:44;;;;;;;3.65;2.40;;;16.90;1.00;;;;;;4826605;29;20563;-36
2022/12/09 00:44:11;;;;;;;3.88;2.42;;;16.90;1.00;;;;;;4842650;29;20537;-37
2022/12/09 00:46:38;;;;;;;4.97;2.53;;;16.90;1.00;;;;;;4826645;29;20058;-37
2022/12/09 00:49:05;;;;;;;3.15;2.22;;;16.90;1.00;;;;;;4843050;29;20081;-36
2022/12/09 00:51:32;;;;;;;3.05;2.42;;;16.80;1.00;;;;;;4842831;29;20046;-36
2022/12/09 00:54:00;;;;;;;3.85;2.40;;;16.80;1.00;;;;;;4842658;29;20106;-37
2022/12/09 00:56:28;;;;;;;3.25;2.30;;;16.80;1.00;;;;;;4842725;29;20141;-37
2022/12/09 00:58:57;;;;;;;2.95;1.95;;;16.80;1.00;;;;;;4842837;29;20052;-37
2022/12/09 01:01:25;;;;;;;3.80;2.20;;;16.70;1.00;;;;;;4830111;29;20039;-36
2022/12/09 01:03:52;;;;;;;3.92;2.58;;;16.70;1.00;;;;;;4807883;29;20507;-37
2022/12/09 01:06:22;;;;;;;3.67;1.85;;;16.70;1.00;;;;;;4808287;29;20108;-37
2022/12/09 01:08:49;;;;;;;2.85;2.10;;;16.60;1.00;;;;;;4808169;29;20050;-37
2022/12/09 01:11:27;;;;;;;3.08;2.20;;;16.60;1.00;;;;;;4824290;29;20060;-36
2022/12/09 01:13:57;;;;;;;2.75;1.80;;;16.60;1.00;;;;;;4824123;29;20392;-36
2022/12/09 01:16:26;;;;;;;3.38;2.15;;;16.50;1.00;;;;;;4808051;29;20055;-36
2022/12/09 01:18:54;;;;;;;3.92;2.30;;;16.50;1.00;;;;;;4824249;29;20042;-36
2022/12/09 01:21:23;;;;;;;3.78;2.08;;;16.50;1.00;;;;;;4807651;29;20043;-36
2022/12/09 01:23:51;;;;;;;2.97;2.03;;;16.40;1.00;;;;;;4823864;29;20133;-36
2022/12/09 01:26:18;;;;;;;4.28;2.70;;;16.40;1.00;;;;;;4824137;29;20058;-37
2022/12/09 01:28:51;;;;;;;2.42;1.63;;;16.30;1.00;;;;;;4807794;29;20074;-36
2022/12/09 01:31:21;;;;;;;2.83;2.03;;;16.30;1.00;;;;;;4824029;29;20058;-36
2022/12/09 01:33:48;;;;;;;2.80;1.70;;;16.30;1.00;;;;;;4807372;29;20400;-36
2022/12/09 01:36:23;;;;;;;3.22;2.15;;;16.20;1.00;;;;;;4807500;29;20057;-36
2022/12/09 01:38:50;;;;;;;5.55;2.13;;;16.20;1.00;;;;;;4823946;29;20125;-36
2022/12/09 01:41:18;;;;;;;2.85;2.03;;;16.20;1.00;;;;;;4823066;29;20054;-35
2022/12/09 01:44:05;;;;;;;2.92;2.28;;;16.10;1.00;;;;;;4807296;29;20107;-36
2022/12/09 01:46:32;;;;;;;2.40;1.70;;;16.10;1.00;;;;;;4823681;29;20050;-36
2022/12/09 01:49:00;;;;;;;2.28;1.88;;;16.00;1.00;;;;;;4807570;29;20111;-36
2022/12/09 01:51:27;;;;;;;2.33;1.67;;;16.00;1.00;;;;;;4807417;29;20434;-36
2022/12/09 01:53:56;;;;;;;3.70;2.50;;;16.00;1.00;;;;;;4823575;29;20050;-36
2022/12/09 01:56:28;;;;;;;3.30;2.20;;;15.90;1.00;;;;;;4807280;29;20141;-36
2022/12/09 01:59:01;;;;;;;4.57;2.40;;;15.90;1.00;;;;;;4806998;29;20054;-37
2022/12/09 02:01:28;;;;;;;3.47;2.25;;;15.90;1.00;;;;;;4789070;29;20079;-36
2022/12/09 02:03:56;;;;;;;4.25;2.53;;;15.90;1.00;;;;;;4788927;29;20043;-35
2022/12/09 02:06:24;;;;;;;3.95;2.53;;;15.80;1.00;;;;;;4805212;29;20503;-36
2022/12/09 02:08:52;;;;;;;2.65;1.90;;;15.80;1.00;;;;;;4788946;29;20591;-36
2022/12/09 02:11:53;;;;;;;3.00;2.25;;;15.80;1.00;;;;;;4789043;29;20053;-36
2022/12/09 02:14:38;;;;;;;2.80;1.83;;;15.70;1.00;;;;;;4781836;29;20082;-35
2022/12/09 02:17:30;;;;;;;3.75;2.38;;;15.70;1.00;;;;;;4788853;29;20422;-36
2022/12/09 02:20:21;;;;;;;2.28;2.03;;;15.60;1.00;;;;;;4788536;29;20687;-35
2022/12/09 02:23:02;;;;;;;3.25;2.30;;;15.60;1.00;;;;;;4773751;29;20465;-35
2022/12/09 02:25:51;;;;;;;3.25;2.33;;;15.60;1.00;;;;;;4788620;29;20137;-36
2022/12/09 02:28:29;;;;;;;3.28;2.40;;;15.50;1.00;;;;;;4789107;29;20065;-35
2022/12/09 02:31:14;;;;;;;3.65;2.30;;;15.50;1.00;;;;;;4805079;29;20050;-35
2022/12/09 02:33:50;;;;;;;3.72;2.47;;;15.50;1.00;;;;;;4788444;29;20069;-35
2022/12/09 02:36:19;;;;;;;4.45;2.20;;;15.40;1.00;;;;;;4791839;29;20579;-35
2022/12/09 02:38:49;;;;;;;4.45;2.83;;;15.40;1.00;;;;;;4806644;29;20062;-35
2022/12/09 02:41:22;;;;;;;2.50;1.75;;;15.30;1.00;;;;;;4806579;29;20109;-36
2022/12/09 02:43:55;;;;;;;2.67;2.13;;;15.40;1.00;;;;;;4806396;29;20053;-35
2022/12/09 02:46:27;;;;;;;3.70;2.78;;;15.30;1.00;;;;;;4806652;29;20055;-36
2022/12/09 02:48:57;;;;;;;3.33;2.33;;;15.30;1.00;;;;;;4823166;29;20053;-36
2022/12/09 02:51:27;;;;;;;5.30;2.72;;;15.30;1.00;;;;;;4807233;29;20046;-36
2022/12/09 02:54:03;;;;;;;4.30;2.47;;;15.30;1.00;;;;;;4810061;29;20107;-37
2022/12/09 02:56:33;;;;;;;4.25;2.83;;;15.20;1.00;;;;;;4810265;29;20046;-37
2022/12/09 02:59:01;;;;;;;4.57;2.75;;;15.20;1.00;;;;;;4810233;29;20070;-37
2022/12/09 03:01:47;;;;;;;3.90;2.60;;;15.20;1.00;;;;;;4809891;29;20043;-36
2022/12/09 03:04:22;;;;;;;3.03;2.15;;;15.10;1.00;;;;;;4826181;29;20046;-37
2022/12/09 03:06:54;;;;;;;3.72;2.67;;;15.10;1.00;;;;;;4826560;29;20089;-37
2022/12/09 03:09:32;;;;;;;3.97;2.83;;;15.10;1.00;;;;;;4826264;29;20046;-36
2022/12/09 03:12:06;;;;;;;4.38;2.83;;;15.10;1.00;;;;;;4826211;29;20074;-36
2022/12/09 03:14:51;;;;;;;5.07;2.95;;;15.00;1.00;;;;;;4826053;29;20079;-36
2022/12/09 03:17:28;;;;;;;4.60;2.83;;;15.00;1.00;;;;;;4826203;29;20082;-37
2022/12/09 03:20:03;;;;;;;4.18;2.70;;;15.00;1.00;;;;;;4826052;29;20094;-36
2022/12/09 03:22:34;;;;;;;4.90;2.88;;;15.00;1.00;;;;;;4826039;29;20133;-37
2022/12/09 03:25:13;;;;;;;5.30;2.80;;;14.90;1.00;;;;;;4825958;29;20042;-37
2022/12/09 03:27:55;;;;;;;4.28;3.15;;;14.90;1.00;;;;;;4826043;29;20111;-36
2022/12/09 03:30:22;;;;;;;3.75;2.40;;;14.90;1.00;;;;;;4825844;29;20146;-35
2022/12/09 03:32:51;;;;;;;7.32;2.63;;;14.90;1.00;;;;;;4825452;29;20052;-35
2022/12/09 03:35:22;;;;;;;4.35;2.67;;;14.80;1.00;;;;;;4826135;29;20054;-36
2022/12/09 03:37:50;;;;;;;5.75;2.92;;;14.80;1.00;;;;;;4826060;29;20051;-36
2022/12/09 03:40:26;;;;;;;4.35;3.03;;;14.80;1.00;;;;;;4825610;29;20503;-36
2022/12/09 03:43:22;;;;;;;6.50;3.42;;;14.80;1.00;;;;;;4825544;29;20133;-35
2022/12/09 03:45:52;;;;;;;4.03;2.70;;;14.80;1.00;;;;;;4825636;29;20578;-35
2022/12/09 03:48:20;;;;;;;4.18;2.60;;;14.70;1.00;;;;;;4825794;29;20057;-36
2022/12/09 03:50:55;;;;;;;3.30;1.98;;;14.70;1.00;;;;;;4825536;29;20042;-36
2022/12/09 03:53:28;;;;;;;2.97;2.03;;;14.70;1.00;;;;;;4825319;29;20050;-37
2022/12/09 03:56:09;;;;;;;4.18;2.60;;;14.70;1.00;;;;;;4825515;29;20065;-35
2022/12/09 03:58:39;;;;;;;4.00;2.53;;;14.70;1.00;;;;;;4825742;29;20507;-36
2022/12/09 04:01:06;;;;;;;3.15;2.38;;;14.60;1.00;;;;;;4825173;29;20046;-36
2022/12/09 04:03:33;;;;;;;3.97;2.80;;;14.60;1.00;;;;;;4824236;29;20056;-37
2022/12/09 04:06:01;;;;;;;3.92;2.47;;;14.60;1.00;;;;;;4825293;29;20085;-37
2022/12/09 04:08:28;;;;;;;4.35;2.67;;;14.60;1.00;;;;;;4825280;29;20050;-36
2022/12/09 04:10:55;;;;;;;3.50;2.40;;;14.60;1.00;;;;;;4825199;29;20133;-36
2022/12/09 04:13:21;;;;;;;4.30;2.83;;;14.50;1.00;;;;;;4825020;29;20071;-37
2022/12/09 04:15:48;;;;;;;3.63;2.53;;;14.50;1.00;;;;;;4825149;29;20144;-37
2022/12/09 04:18:15;;;;;;;5.55;3.15;;;14.50;1.00;;;;;;4808849;29;20050;-37
2022/12/09 04:20:42;;;;;;;3.97;2.67;;;14.50;1.00;;;;;;4824840;29;20049;-37
2022/12/09 04:23:09;;;;;;;3.88;2.25;;;14.50;1.00;;;;;;4824828;29;20137;-37
2022/12/09 04:25:37;;;;;;;3.67;2.50;;;14.50;1.00;;;;;;4825034;29;20058;-36
2022/12/09 04:28:04;;;;;;;3.85;2.47;;;14.40;1.00;;;;;;4825006;29;20075;-36
2022/12/09 04:30:31;;;;;;;4.32;2.58;;;14.40;1.00;;;;;;4825087;29;20050;-37
2022/12/09 04:32:59;;;;;;;4.15;2.53;;;14.40;1.00;;;;;;4824660;29;20111;-36
2022/12/09 04:35:26;;;;;;;4.75;2.90;;;14.40;1.00;;;;;;4824956;29;20050;-36
2022/12/09 04:37:54;;;;;;;4.22;2.30;;;14.40;1.00;;;;;;4824933;29;20075;-37
2022/12/09 04:40:21;;;;;;;5.18;2.95;;;14.30;1.00;;;;;;4824652;29;20125;-36
2022/12/09 04:42:50;;;;;;;3.58;2.67;;;14.30;1.00;;;;;;4824539;29;20106;-37
2022/12/09 04:45:17;;;;;;;4.35;2.70;;;14.30;1.00;;;;;;4824722;29;20046;-37
2022/12/09 04:47:44;;;;;;;3.22;2.42;;;14.30;1.00;;;;;;4824669;29;20046;-36
2022/12/09 04:50:11;;;;;;;3.38;2.53;;;14.30;1.00;;;;;;4808147;29;20427;-37
2022/12/09 04:52:40;;;;;;;4.75;2.97;;;14.20;1.00;;;;;;4824538;29;20057;-37
2022/12/09 04:55:07;;;;;;;4.03;2.28;;;14.30;1.00;;;;;;4824497;29;20050;-37
2022/12/09 04:57:35;;;;;;;5.00;2.95;;;14.20;1.00;;;;;;4824611;29;20061;-37
2022/12/09 05:00:04;;;;;;;3.90;2.67;;;14.20;1.00;;;;;;4807890;29;20503;-37
2022/12/09 05:02:33;;;;;;;4.88;2.80;;;14.20;1.00;;;;;;4824414;29;20042;-41
2022/12/09 05:05:00;;;;;;;3.63;2.42;;;14.10;1.00;;;;;;4824354;29;20038;-36
2022/12/09 05:07:32;;;;;;;3.90;2.53;;;14.10;1.00;;;;;;4824502;29;20072;-36
2022/12/09 05:09:59;;;;;;;4.07;2.97;;;14.10;1.00;;;;;;4808116;29;20137;-36
2022/12/09 05:12:27;;;;;;;3.75;2.45;;;14.10;1.00;;;;;;4824170;29;20129;-36
2022/12/09 05:14:54;;;;;;;4.22;2.85;;;14.10;1.00;;;;;;4823970;29;20089;-36
2022/12/09 05:17:21;;;;;;;4.95;2.47;;;14.10;1.00;;;;;;4824330;29;20046;-38
2022/12/09 05:19:48;;;;;;;5.43;2.85;;;14.00;1.00;;;;;;4824057;29;20503;-37
2022/12/09 05:22:16;;;;;;;6.57;2.67;;;14.00;1.00;;;;;;4824069;29;20125;-37
2022/12/09 05:24:45;;;;;;;5.07;2.78;;;14.00;1.00;;;;;;4824101;29;20513;-36
2022/12/09 05:27:13;;;;;;;9.73;2.72;;;14.00;1.00;;;;;;4825405;29;20054;-37
2022/12/09 05:29:40;;;;;;;13.25;3.35;;;13.90;1.00;;;;;;4834580;29;20042;-36
2022/12/09 05:32:07;;;;;;;5.22;2.83;;;14.00;1.00;;;;;;4832262;29;20074;-36
2022/12/09 05:34:34;;;;;;;9.88;2.60;;;14.00;1.00;;;;;;4818287;29;20042;-36
2022/12/09 05:37:01;;;;;;;4.05;2.25;;;14.10;1.00;;;;;;4841341;29;20038;-35
2022/12/09 05:39:28;;;;;;;12.20;3.33;;;14.10;1.00;;;;;;4824976;29;20042;-43
2022/12/09 05:41:56;;;;;;;5.03;3.05;;;14.20;1.00;;;;;;4840832;29;20099;-36
2022/12/09 05:44:22;;;;;;;7.30;2.13;;;14.30;1.00;;;;;;4840684;29;20069;-37
2022/12/09 05:46:49;;;;;;;5.57;2.42;;;14.40;1.00;;;;;;4840728;29;20379;-36
2022/12/09 05:49:16;;;;;;;4.35;2.38;;;14.50;1.00;;;;;;4840643;29;20052;-37
2022/12/09 05:51:44;;;;;;;4.30;1.80;;;14.60;1.00;;;;;;4841044;29;20045;-36
2022/12/09 05:54:11;;;;;;;4.07;2.15;;;14.70;1.00;;;;;;4842154;29;20077;-36
2022/12/09 05:56:38;;;;;;;3.67;2.30;;;14.80;1.00;;;;;;4835615;29;20567;-36
2022/12/09 05:59:13;;;;;;;8.05;1.85;;;14.90;1.00;;;;;;4826277;29;20133;-38
2022/12/09 06:01:40;;;;;;;23.38;2.80;;;15.00;1.00;;;;;;4819764;29;20042;-36
2022/12/09 06:04:07;;;;;;;3.58;1.92;;;15.10;1.00;;;;;;4832076;29;20074;-36
2022/12/09 06:06:34;;;;;;;4.63;2.25;;;15.20;1.00;;;;;;4841675;29;20474;-36
2022/12/09 06:09:02;;;;;;;5.65;2.30;;;15.30;1.00;;;;;;4825543;29;20046;-36
2022/12/09 06:11:31;;;;;;;6.05;2.03;;;15.30;1.00;;;;;;4841472;29;20054;-36
2022/12/09 06:13:58;;;;;;;5.70;2.25;;;15.40;1.00;;;;;;4841344;29;20050;-36
2022/12/09 06:16:25;;;;;;;2.30;1.67;;;15.50;1.00;;;;;;4841517;29;20133;-35
2022/12/09 06:18:53;;;;;;;4.90;1.83;;;15.50;1.00;;;;;;4841534;29;20072;-36
2022/12/09 06:21:20;;;;;;;2.47;1.70;;;15.60;1.00;;;;;;4841201;29;20042;-35
2022/12/09 06:23:49;;;;;;;5.05;2.20;;;15.60;1.00;;;;;;4841299;29;20410;-36
2022/12/09 06:26:23;;;;;;;4.22;1.92;;;15.70;1.00;;;;;;4840963;29;20055;-35
2022/12/09 06:28:51;;;;;;;6.55;2.40;;;15.70;1.00;;;;;;4825015;29;20399;-37
2022/12/09 06:31:20;;;;;;;4.10;1.73;;;15.70;1.00;;;;;;4841307;29;20065;-37
2022/12/09 06:33:48;;;;;;;4.63;2.40;;;15.70;1.00;;;;;;4841085;29;20065;-35
2022/12/09 06:36:27;;;;;;;4.55;2.13;;;15.70;1.00;;;;;;4841264;29;20061;-36
2022/12/09 06:38:55;;;;;;;3.90;1.42;;;15.70;1.00;;;;;;4841388;29;20136;-36
2022/12/09 06:41:23;;;;;;;6.28;1.80;;;15.70;1.00;;;;;;4841081;29;20046;-36
2022/12/09 06:43:50;;;;;;;4.95;1.88;;;15.70;1.00;;;;;;4824559;29;20494;-36
2022/12/09 06:46:23;;;;;;;2.85;1.90;;;15.70;1.00;;;;;;4841114;29;20042;-35
2022/12/09 06:48:54;;;;;;;3.92;2.03;;;15.70;1.00;;;;;;4841139;29;20085;-36
2022/12/09 06:51:22;;;;;;;2.28;1.60;;;15.70;1.00;;;;;;4840924;29;20593;-36
2022/12/09 06:53:49;;;;;;;2.63;1.83;;;15.60;1.00;;;;;;4840867;29;20054;-36
2022/12/09 06:56:16;;;;;;;3.75;2.20;;;15.60;1.00;;;;;;4841201;29;20114;-36
2022/12/09 06:58:45;;;;;;;3.88;1.80;;;15.60;1.00;;;;;;4824995;29;20058;-36
2022/12/09 07:01:21;;;;;;;4.05;1.88;;;15.50;1.00;;;;;;4829692;29;20050;-36
2022/12/09 07:03:51;;;;;;;7.00;1.80;;;15.50;1.00;;;;;;4806632;29;20043;-35
2022/12/09 07:06:27;;;;;;;4.07;2.20;;;15.50;1.00;;;;;;4822877;29;20076;-36
2022/12/09 07:08:59;;;;;;;2.78;1.80;;;15.50;1.00;;;;;;4822830;29;20042;-36
2022/12/09 07:11:26;;;;;;;3.80;2.38;;;15.40;1.00;;;;;;4822604;29;20061;-35
2022/12/09 07:13:54;;;;;;;4.40;2.53;;;15.40;1.00;;;;;;4822827;29;20149;-36
2022/12/09 07:16:21;;;;;;;3.05;2.08;;;15.40;1.00;;;;;;4822819;29;20053;-36
2022/12/09 07:18:48;;;;;;;9.80;2.53;;;15.30;1.00;;;;;;4822848;29;20051;-36
2022/12/09 07:21:17;;;;;;;2.97;1.50;;;15.30;1.00;;;;;;4822600;29;20130;-36
2022/12/09 07:23:45;;;;;;;2.60;1.88;;;15.30;1.00;;;;;;4822429;29;20042;-36
2022/12/09 07:26:13;;;;;;;3.13;1.83;;;15.20;1.00;;;;;;4806311;29;20045;-36
2022/12/09 07:28:41;;;;;;;2.92;2.33;;;15.20;1.00;;;;;;4822569;29;20095;-37
2022/12/09 07:31:23;;;;;;;2.90;1.65;;;15.20;1.00;;;;;;4822500;29;20060;-35
2022/12/09 07:33:53;;;;;;;4.22;2.20;;;15.10;1.00;;;;;;4819419;29;20058;-36
2022/12/09 07:36:22;;;;;;;2.95;2.03;;;15.10;1.00;;;;;;4816063;29;20054;-36
2022/12/09 07:39:15;;;;;;;2.88;1.83;;;15.10;1.00;;;;;;4822074;29;20538;-36
2022/12/09 07:41:43;;;;;;;2.33;1.60;;;15.10;1.00;;;;;;4825589;29;20046;-36
2022/12/09 07:44:10;;;;;;;3.15;1.85;;;15.00;1.00;;;;;;4825539;29;20118;-36
2022/12/09 07:46:38;;;;;;;4.70;2.05;;;15.00;1.00;;;;;;4825603;29;20054;-36
2022/12/09 07:49:06;;;;;;;5.00;2.00;;;15.00;1.00;;;;;;4825615;29;20069;-36
2022/12/09 07:51:33;;;;;;;4.93;2.20;;;14.90;1.00;;;;;;4825429;29;20122;-36
2022/12/09 07:54:00;;;;;;;3.63;1.95;;;14.90;1.00;;;;;;4825314;29;20096;-36
2022/12/09 07:56:28;;;;;;;3.08;1.75;;;14.90;1.00;;;;;;4825472;29;20050;-36
2022/12/09 07:58:56;;;;;;;3.00;1.75;;;14.90;1.00;;;;;;4825353;29;20468;-36
2022/12/09 08:01:25;;;;;;;2.40;1.40;;;15.00;1.00;;;;;;4824999;29;20047;-36
2022/12/09 08:03:54;;;;;;;2.35;1.38;;;15.00;1.00;;;;;;4825067;29;20115;-36
2022/12/09 08:06:24;;;;;;;4.15;1.95;;;15.10;1.00;;;;;;4825386;29;20051;-35
2022/12/09 08:08:51;;;;;;;1.90;1.20;;;15.20;1.00;;;;;;4825322;29;20138;-36
2022/12/09 08:11:25;;;;;;;2.92;1.45;;;15.30;1.00;;;;;;4825147;29;20050;-36
2022/12/09 08:13:59;;;;;;;2.63;1.30;;;15.30;1.00;;;;;;4824861;29;20077;-37
2022/12/09 08:16:35;;;;;;;1.85;1.00;;;15.40;1.00;;;;;;4808854;29;20503;-37
2022/12/09 08:19:02;;;;;;;3.08;1.23;;;15.50;1.00;;;;;;4825011;29;20051;-35
2022/12/09 08:21:31;;;;;;;2.67;1.38;;;15.60;1.00;;;;;;4824802;29;20046;-36
2022/12/09 08:24:00;;;;;;;3.15;1.17;;;15.60;1.00;;;;;;4824707;29;20069;-36
2022/12/09 08:26:30;;;;;;;3.30;1.08;;;15.70;1.00;;;;;;4808709;29;20523;-35
2022/12/09 08:28:57;;;;;;;2.15;0.90;;;15.80;1.00;;;;;;4825067;29;20456;-36
2022/12/09 08:31:26;;;;;;;2.33;1.00;;;15.80;1.00;;;;;;4808672;29;20050;-36
2022/12/09 08:33:53;;;;;;;2.08;0.80;;;15.90;1.00;;;;;;4824614;29;20133;-36
2022/12/09 08:36:26;;;;;;;1.52;1.08;;;15.90;1.00;;;;;;4824954;29;20051;-37
2022/12/09 08:38:54;;;;;;;1.55;0.80;;;15.90;1.00;;;;;;4824673;29;20051;-37
2022/12/09 08:41:33;;;;;;;2.72;1.02;;;16.00;1.00;;;;;;4824761;29;20070;-37
2022/12/09 08:44:13;;;;;;;1.67;1.05;;;15.90;1.00;;;;;;4808680;29;20423;-35
2022/12/09 08:46:42;;;;;;;1.48;0.80;;;16.00;1.00;;;;;;4824646;29;20058;-36
2022/12/09 08:49:09;;;;;;;2.65;1.25;;;16.00;1.00;;;;;;4824217;29;20137;-36
2022/12/09 08:51:36;;;;;;;3.70;0.90;;;15.90;1.00;;;;;;4824355;29;20085;-37
2022/12/09 08:54:04;;;;;;;2.10;1.02;;;15.90;1.00;;;;;;4824326;29;20527;-36
2022/12/09 08:56:32;;;;;;;2.92;0.95;;;15.90;1.00;;;;;;4824577;29;20058;-36
2022/12/09 08:58:59;;;;;;;2.10;1.15;;;15.90;1.00;;;;;;4824596;29;20061;-36
2022/12/09 09:01:31;;;;;;;2.03;1.08;;;15.90;1.00;;;;;;4824246;29;20046;-37
2022/12/09 09:04:14;;;;;;;2.70;1.40;;;15.90;1.00;;;;;;4807796;29;20480;-35
2022/12/09 09:06:44;;;;;;;1.73;0.90;;;15.90;1.00;;;;;;4808477;29;20127;-36
2022/12/09 09:09:12;;;;;;;2.05;1.00;;;15.90;1.00;;;;;;4824219;29;20046;-36
2022/12/09 09:11:41;;;;;;;3.00;1.02;;;15.90;1.00;;;;;;4824458;29;20058;-36
2022/12/09 09:14:10;;;;;;;1.88;1.00;;;15.90;1.00;;;;;;4824042;29;20081;-36
2022/12/09 09:16:40;;;;;;;3.40;1.38;;;15.90;1.00;;;;;;4807735;29;20655;-36
2022/12/09 09:19:11;;;;;;;2.60;1.20;;;15.90;1.00;;;;;;4824218;29;20461;-36
2022/12/09 09:21:38;;;;;;;2.83;1.52;;;15.90;1.00;;;;;;4824077;29;20055;-36
2022/12/09 09:24:11;;;;;;;1.85;1.08;;;15.80;1.00;;;;;;4823848;29;20050;-36
2022/12/09 09:26:40;;;;;;;2.63;0.95;;;15.80;1.00;;;;;;4824161;29;20419;-36
2022/12/09 09:29:12;;;;;;;1.95;1.10;;;15.80;1.00;;;;;;4823880;29;20054;-36
2022/12/09 09:31:40;;;;;;;2.80;1.20;;;15.80;1.00;;;;;;4824059;29;20724;-36
2022/12/09 09:34:08;;;;;;;2.35;1.20;;;15.80;1.00;;;;;;4823821;29;20065;-36
2022/12/09 09:36:36;;;;;;;1.67;1.15;;;15.70;1.00;;;;;;4823922;29;20058;-36
2022/12/09 09:39:03;;;;;;;2.88;1.40;;;15.70;1.00;;;;;;4823884;29;20136;-36
2022/12/09 09:41:48;;;;;;;2.38;1.25;;;15.70;1.00;;;;;;4807401;29;20050;-37
2022/12/09 09:44:18;;;;;;;1.83;1.05;;;15.70;1.00;;;;;;4823439;29;20503;-37
2022/12/09 09:46:48;;;;;;;4.43;1.17;;;15.70;1.00;;;;;;4823898;29;20456;-35
2022/12/09 09:49:27;;;;;;;3.38;1.05;;;15.60;1.00;;;;;;4807330;29;20042;-37
2022/12/09 09:51:55;;;;;;;1.33;0.80;;;15.60;1.00;;;;;;4823660;29;20046;-36
2022/12/09 09:54:22;;;;;;;2.58;1.02;;;15.60;1.00;;;;;;4823434;29;20065;-36
2022/12/09 09:57:18;;;;;;;2.63;1.23;;;15.60;1.00;;;;;;4807645;29;20070;-36
2022/12/09 09:59:54;;;;;;;2.10;1.08;;;15.60;1.00;;;;;;4789977;29;20083;-35
2022/12/09 10:02:38;;;;;;;2.28;1.33;;;15.50;1.00;;;;;;4822660;29;20099;-36
2022/12/09 10:05:21;;;;;;;2.40;1.40;;;15.50;1.00;;;;;;4807120;29;20085;-36
2022/12/09 10:07:55;;;;;;;3.65;1.15;;;15.50;1.00;;;;;;4823457;29;20043;-36
2022/12/09 10:10:38;;;;;;;2.80;1.30;;;15.50;1.00;;;;;;4823395;29;20046;-36
2022/12/09 10:13:53;;;;;;;2.25;1.00;;;15.40;1.00;;;;;;4823197;29;20107;-36
2022/12/09 10:16:44;;;;;;;2.22;1.15;;;15.40;1.00;;;;;;4802950;29;20447;-36
2022/12/09 10:19:20;;;;;;;2.03;0.90;;;15.40;1.00;;;;;;4822689;29;20154;-36
2022/12/09 10:21:49;;;;;;;2.35;1.38;;;15.40;1.00;;;;;;4806749;29;20482;-36
2022/12/09 10:24:22;;;;;;;2.60;1.17;;;15.40;1.00;;;;;;4823117;29;20041;-36
2022/12/09 10:27:12;;;;;;;2.60;1.48;;;15.30;1.00;;;;;;4823297;29;20070;-36
2022/12/09 10:29:57;;;;;;;3.75;1.70;;;15.30;1.00;;;;;;4823382;29;20517;-35
2022/12/09 10:32:27;;;;;;;2.17;1.30;;;15.30;1.00;;;;;;4823107;29;20563;-36
2022/12/09 10:34:55;;;;;;;3.50;1.15;;;15.30;1.00;;;;;;4823227;29;20391;-36
2022/12/09 10:37:33;;;;;;;3.25;1.42;;;15.20;1.00;;;;;;4806646;29;20054;-36
2022/12/09 10:40:06;;;;;;;3.17;1.75;;;15.20;1.00;;;;;;4823025;29;20046;-36
2022/12/09 10:45:31;;;;;;;3.97;1.67;;;15.20;1.00;;;;;;4823192;29;20099;-35
2022/12/09 10:48:47;;;;;;;7.05;1.42;;;15.20;1.00;;;;;;4823400;29;20047;-36
2022/12/09 10:51:26;;;;;;;3.10;1.25;;;15.10;1.00;;;;;;4820871;29;20058;-36
2022/12/09 10:54:10;;;;;;;3.13;1.40;;;15.10;1.00;;;;;;4822733;29;20059;-36
2022/12/09 10:57:01;;;;;;;4.00;1.58;;;15.10;1.00;;;;;;4822830;29;20534;-36
2022/12/09 10:59:29;;;;;;;3.63;1.48;;;15.10;1.00;;;;;;4822941;29;20046;-36
2022/12/09 11:02:08;;;;;;;3.65;1.38;;;15.10;1.00;;;;;;4822678;29;20133;-36
2022/12/09 11:04:42;;;;;;;3.22;1.60;;;15.10;1.00;;;;;;4822726;29;20129;-36
2022/12/09 11:07:24;;;;;;;3.03;1.33;;;15.00;1.00;;;;;;4822667;29;20078;-36
2022/12/09 11:09:54;;;;;;;2.65;1.23;;;15.00;1.00;;;;;;4822840;29;20053;-37
2022/12/09 11:12:35;;;;;;;3.42;1.73;;;15.00;1.00;;;;;;4823504;29;20054;-36
2022/12/09 11:15:28;;;;;;;2.83;1.52;;;15.00;1.00;;;;;;4826308;29;20456;-36
2022/12/09 11:17:57;;;;;;;1.52;0.88;;;15.00;1.00;;;;;;4809769;29;20050;-36
2022/12/09 11:20:29;;;;;;;3.03;1.65;;;15.00;1.00;;;;;;4809977;29;20088;-35
2022/12/09 11:22:59;;;;;;;2.70;1.67;;;14.90;1.00;;;;;;4825920;29;20133;-35
2022/12/09 11:25:32;;;;;;;5.28;1.75;;;14.90;1.00;;;;;;4810206;29;20342;-35
2022/12/09 11:28:20;;;;;;;2.83;1.48;;;14.90;1.00;;;;;;4809698;29;20534;-35
2022/12/09 11:31:20;;;;;;;2.50;1.27;;;14.90;1.00;;;;;;4826003;29;20125;-35
2022/12/09 11:34:02;;;;;;;3.50;1.10;;;14.80;1.00;;;;;;4807879;29;20059;-36
2022/12/09 11:36:36;;;;;;;2.65;1.27;;;14.80;1.00;;;;;;4825939;29;20046;-35
2022/12/09 11:39:15;;;;;;;4.18;1.38;;;14.80;1.00;;;;;;4825787;29;20089;-35
2022/12/09 11:45:16;;;;;;;3.22;1.55;;;14.80;1.00;;;;;;4825595;29;20047;-36
2022/12/09 11:47:45;;;;;;;3.78;1.70;;;14.70;1.00;;;;;;4825679;29;20046;-36
2022/12/09 11:50:34;;;;;;;3.38;1.40;;;14.70;1.00;;;;;;4825408;29;20042;-35
2022/12/09 11:53:31;;;;;;;2.97;2.03;;;14.70;1.00;;;;;;4825158;29;20134;-36
2022/12/09 11:56:10;;;;;;;3.20;1.67;;;14.70;1.00;;;;;;4822527;29;20163;-38
2022/12/09 11:58:48;;;;;;;3.80;1.85;;;14.70;1.00;;;;;;4825449;29;20058;-36
2022/12/09 12:01:31;;;;;;;2.63;1.88;;;14.70;1.00;;;;;;4825070;29;20568;-35
2022/12/09 12:04:03;;;;;;;3.25;1.80;;;14.70;1.00;;;;;;4809055;29;20095;-35
2022/12/09 12:06:46;;;;;;;2.22;1.50;;;14.60;1.00;;;;;;4825399;29;20070;-36
2022/12/09 12:09:25;;;;;;;3.33;1.58;;;14.60;1.00;;;;;;4825435;29;20038;-36
2022/12/09 12:12:00;;;;;;;3.60;1.77;;;14.60;1.00;;;;;;4825282;29;20047;-36
2022/12/09 12:14:29;;;;;;;3.00;1.60;;;14.60;1.00;;;;;;4825044;29;20054;-36
2022/12/09 12:17:27;;;;;;;2.78;1.42;;;14.50;1.00;;;;;;4825250;29;20060;-37
2022/12/09 12:19:56;;;;;;;2.53;1.33;;;14.50;1.00;;;;;;4824825;29;20498;-35
2022/12/09 12:22:25;;;;;;;2.85;1.73;;;14.50;1.00;;;;;;4808585;29;20079;-35
2022/12/09 12:24:55;;;;;;;4.65;2.10;;;14.50;1.00;;;;;;4824212;29;20046;-35
2022/12/09 12:27:30;;;;;;;3.17;1.80;;;14.50;1.00;;;;;;4824962;29;20559;-36
2022/12/09 12:29:57;;;;;;;2.28;1.42;;;14.50;1.00;;;;;;4824930;29;20148;-35
2022/12/09 12:32:46;;;;;;;2.53;1.63;;;14.50;1.00;;;;;;4824640;29;20058;-36
2022/12/09 12:35:38;;;;;;;2.97;1.35;;;14.40;1.00;;;;;;4825162;29;20562;-36
2022/12/09 12:38:29;;;;;;;4.10;1.77;;;14.40;1.00;;;;;;4824795;29;20058;-36
2022/12/09 12:41:27;;;;;;;2.80;1.50;;;14.40;1.00;;;;;;4824848;29;20099;-36
2022/12/09 12:46:58;;;;;;;3.22;1.90;;;14.40;1.00;;;;;;4824595;29;20095;-36
2022/12/09 12:49:47;;;;;;;3.17;1.38;;;14.30;1.00;;;;;;4824714;29;20525;-35
2022/12/09 12:52:36;;;;;;;4.40;1.65;;;14.30;1.00;;;;;;4808438;29;20153;-36
2022/12/09 12:55:49;;;;;;;5.22;2.30;;;14.30;1.00;;;;;;4824559;29;20142;-36
2022/12/09 12:58:31;;;;;;;2.72;1.40;;;14.30;1.00;;;;;;4824444;29;20050;-36
2022/12/09 13:00:59;;;;;;;2.15;1.63;;;14.30;1.00;;;;;;4824494;29;20046;-35
2022/12/09 13:03:35;;;;;;;3.40;1.70;;;14.20;1.00;;;;;;4807945;29;20049;-35
2022/12/09 13:06:03;;;;;;;3.90;1.77;;;14.20;1.00;;;;;;4824576;29;20066;-35
2022/12/09 13:08:54;;;;;;;2.38;1.48;;;14.20;1.00;;;;;;4824299;29;20075;-35
2022/12/09 13:11:46;;;;;;;2.63;2.03;;;14.20;1.00;;;;;;4809289;29;20055;-35
2022/12/09 13:14:19;;;;;;;2.28;1.35;;;14.20;1.00;;;;;;4807541;29;20050;-36
2022/12/09 13:16:47;;;;;;;4.65;1.63;;;14.20;1.00;;;;;;4824374;29;20050;-36
2022/12/09 13:19:32;;;;;;;3.10;1.65;;;14.20;1.00;;;;;;4807936;29;20050;-37
2022/12/09 13:21:59;;;;;;;2.80;1.60;;;14.20;1.00;;;;;;4824165;29;20052;-36
2022/12/09 13:24:41;;;;;;;5.50;1.75;;;14.10;1.00;;;;;;4823797;29;20103;-36
2022/12/09 13:27:16;;;;;;;3.20;1.90;;;14.10;1.00;;;;;;4807651;29;20077;-36
2022/12/09 13:30:08;;;;;;;4.82;1.75;;;14.10;1.00;;;;;;4823993;29;20046;-36
2022/12/09 13:32:54;;;;;;;3.33;1.50;;;14.10;1.00;;;;;;4823867;29;20046;-36
2022/12/09 13:35:38;;;;;;;2.90;1.52;;;14.10;1.00;;;;;;4824000;29;20054;-36